Time;durP1;ratioP1;P1;durP2;ratioP2;P2;SDS_P1;SDS_P2;PMS_P1;PMS_P2;Temp;Humidity;BMP_temperature;BMP_pressure;BME280_temperature;BME280_humidity;BME280_pressure;Samples;Min_cycle;Max_cycle;Signal;HPM_P1;HPM_P2
2023/12/08 00:01:22;;;;;;;;;;;2.10;99.90;;;;;;5116541;27;19924;-71
2023/12/08 00:03:48;;;;;;;;;;;2.10;99.90;;;;;;5116119;27;19990;-71
2023/12/08 00:06:13;;;;;;;;;;;2.10;99.90;;;;;;5108967;27;19924;-71
2023/12/08 00:08:39;;;;;;;;;;;2.10;99.90;;;;;;5113948;27;19924;-71
2023/12/08 00:11:05;;;;;;;;;;;2.10;99.90;;;;;;5113838;27;19924;-71
2023/12/08 00:13:31;;;;;;;;;;;2.10;99.90;;;;;;5118298;27;19938;-71
2023/12/08 00:15:56;;;;;;;;;;;2.10;99.90;;;;;;5110794;27;19931;-72
2023/12/08 00:18:22;;;;;;;;;;;2.10;99.90;;;;;;5120749;27;19935;-71
2023/12/08 00:20:48;;;;;;;;;;;2.10;99.90;;;;;;5111672;27;19924;-71
2023/12/08 00:23:14;;;;;;;;;;;2.10;99.90;;;;;;5119387;27;19924;-71
2023/12/08 00:25:40;;;;;;;;;;;2.10;99.90;;;;;;5120628;27;20290;-71
2023/12/08 00:28:06;;;;;;;;;;;2.10;99.90;;;;;;5122440;27;19953;-71
2023/12/08 00:30:31;;;;;;;;;;;2.10;99.90;;;;;;5116965;27;19974;-71
2023/12/08 00:32:57;;;;;;;;;;;2.10;99.90;;;;;;5111934;27;20430;-72
2023/12/08 00:35:22;;;;;;;;;;;2.10;99.90;;;;;;5117125;27;20349;-71
2023/12/08 00:37:48;;;;;;;;;;;2.10;99.90;;;;;;5115270;27;20297;-71
2023/12/08 00:40:14;;;;;;;;;;;2.10;99.90;;;;;;5110963;27;20396;-72
2023/12/08 00:42:40;;;;;;;;;;;2.10;99.90;;;;;;5112987;27;19968;-72
2023/12/08 00:45:06;;;;;;;;;;;2.10;99.90;;;;;;5115425;27;19931;-71
2023/12/08 00:47:31;;;;;;;;;;;2.10;99.90;;;;;;5107655;28;19928;-72
2023/12/08 00:49:57;;;;;;;;;;;2.00;99.90;;;;;;5111947;27;19930;-72
2023/12/08 00:52:23;;;;;;;;;;;2.10;99.90;;;;;;5094691;27;19975;-72
2023/12/08 00:54:48;;;;;;;;;;;2.10;99.90;;;;;;5115264;27;19924;-72
2023/12/08 00:57:14;;;;;;;;;;;2.10;99.90;;;;;;5116481;27;19980;-73
2023/12/08 00:59:40;;;;;;;;;;;2.10;99.90;;;;;;5113267;27;19927;-72
2023/12/08 01:02:05;;;;;;;;;;;2.10;99.90;;;;;;5111862;27;20382;-72
2023/12/08 01:04:31;;;;;;;;;;;2.10;99.90;;;;;;5113708;27;20393;-72
2023/12/08 01:06:56;;;;;;;;;;;2.10;99.90;;;;;;5118281;27;19934;-72
2023/12/08 01:09:22;;;;;;;;;;;2.10;99.90;;;;;;5109234;27;19956;-72
2023/12/08 01:11:48;;;;;;;;;;;2.00;99.90;;;;;;5111611;27;20165;-72
2023/12/08 01:14:13;;;;;;;;;;;2.00;99.90;;;;;;5112312;27;20344;-71
2023/12/08 01:16:42;;;;;;;;;;;2.00;99.90;;;;;;5111445;27;19985;-72
2023/12/08 01:19:10;;;;;;;;;;;2.00;99.90;;;;;;5112327;27;19931;-72
2023/12/08 01:21:36;;;;;;;;;;;2.00;99.90;;;;;;5111361;27;20037;-70
2023/12/08 01:24:01;;;;;;;;;;;2.00;99.90;;;;;;5119392;27;20385;-69
2023/12/08 01:26:27;;;;;;;;;;;2.00;99.90;;;;;;5119200;27;19927;-72
2023/12/08 01:28:52;;;;;;;;;;;2.00;99.90;;;;;;5097281;27;19931;-72
2023/12/08 01:31:18;;;;;;;;;;;2.00;99.90;;;;;;5114801;27;20436;-72
2023/12/08 01:33:44;;;;;;;;;;;2.00;99.90;;;;;;5111579;27;19950;-72
2023/12/08 01:36:10;;;;;;;;;;;2.00;99.90;;;;;;5108031;27;20302;-72
2023/12/08 01:38:35;;;;;;;;;;;2.00;99.90;;;;;;5109142;27;20042;-72
2023/12/08 01:41:01;;;;;;;;;;;2.00;99.90;;;;;;5117450;27;20020;-72
2023/12/08 01:43:26;;;;;;;;;;;1.90;99.90;;;;;;5111898;27;19928;-72
2023/12/08 01:45:54;;;;;;;;;;;2.00;99.90;;;;;;5114865;27;22356;-71
2023/12/08 01:48:20;;;;;;;;;;;1.90;99.90;;;;;;5111629;27;20389;-72
2023/12/08 01:50:45;;;;;;;;;;;1.90;99.90;;;;;;5110264;27;19942;-72
2023/12/08 01:53:11;;;;;;;;;;;1.90;99.90;;;;;;5112647;27;20418;-72
2023/12/08 01:55:38;;;;;;;;;;;1.90;99.90;;;;;;5109450;27;20398;-72
2023/12/08 01:58:03;;;;;;;;;;;1.90;99.90;;;;;;5117010;27;19924;-72
2023/12/08 02:00:29;;;;;;;;;;;1.90;99.90;;;;;;5117746;27;19931;-72
2023/12/08 02:02:56;;;;;;;;;;;1.90;99.90;;;;;;5110962;27;19930;-72
2023/12/08 02:05:22;;;;;;;;;;;1.90;99.90;;;;;;5112503;27;19923;-72
2023/12/08 02:07:48;;;;;;;;;;;1.90;99.90;;;;;;5113164;27;19919;-72
2023/12/08 02:10:13;;;;;;;;;;;1.90;99.90;;;;;;5117800;27;19932;-72
2023/12/08 02:12:39;;;;;;;;;;;1.90;99.90;;;;;;5110038;27;19931;-72
2023/12/08 02:15:05;;;;;;;;;;;1.90;99.90;;;;;;5109289;27;20010;-72
2023/12/08 02:17:35;;;;;;;;;;;1.90;99.90;;;;;;5098783;27;19931;-71
2023/12/08 02:20:03;;;;;;;;;;;1.90;99.90;;;;;;5110099;27;19968;-71
2023/12/08 02:22:28;;;;;;;;;;;1.90;99.90;;;;;;5110834;27;19927;-71
2023/12/08 02:24:54;;;;;;;;;;;1.90;99.90;;;;;;5116728;27;19924;-71
2023/12/08 02:27:20;;;;;;;;;;;1.90;99.90;;;;;;5110995;27;19932;-71
2023/12/08 02:29:46;;;;;;;;;;;1.90;99.90;;;;;;5109513;27;19928;-71
2023/12/08 02:32:20;;;;;;;;;;;1.90;99.90;;;;;;5112961;27;19924;-71
2023/12/08 02:34:47;;;;;;;;;;;1.90;99.90;;;;;;5112872;27;19932;-71
2023/12/08 02:37:14;;;;;;;;;;;1.90;99.90;;;;;;5097630;28;19927;-71
2023/12/08 02:39:40;;;;;;;;;;;1.90;99.90;;;;;;5105541;27;19924;-72
2023/12/08 02:42:07;;;;;;;;;;;1.90;99.90;;;;;;5111808;28;19928;-71
2023/12/08 02:44:32;;;;;;;;;;;1.90;99.90;;;;;;5114602;27;19942;-72
2023/12/08 02:46:58;;;;;;;;;;;1.90;99.90;;;;;;5089065;27;19927;-71
2023/12/08 02:49:24;;;;;;;;;;;1.90;99.90;;;;;;5108627;28;19971;-71
2023/12/08 02:51:49;;;;;;;;;;;1.90;99.90;;;;;;5113767;27;20019;-71
2023/12/08 02:54:15;;;;;;;;;;;1.90;99.90;;;;;;5109858;28;20307;-72
2023/12/08 02:56:40;;;;;;;;;;;1.90;99.90;;;;;;5096498;27;19923;-73
2023/12/08 02:59:06;;;;;;;;;;;1.90;99.90;;;;;;5109109;28;19931;-70
2023/12/08 03:01:31;;;;;;;;;;;1.90;99.90;;;;;;5102547;28;19932;-71
2023/12/08 03:03:57;;;;;;;;;;;1.90;99.90;;;;;;5112460;28;19931;-70
2023/12/08 03:06:22;;;;;;;;;;;1.90;99.90;;;;;;5109086;28;20122;-71
2023/12/08 03:08:48;;;;;;;;;;;1.90;99.90;;;;;;5113470;27;19977;-70
2023/12/08 03:11:13;;;;;;;;;;;1.90;99.90;;;;;;5112196;28;19924;-70
2023/12/08 03:13:39;;;;;;;;;;;1.90;99.90;;;;;;5109319;28;19976;-70
2023/12/08 03:16:05;;;;;;;;;;;1.80;99.90;;;;;;5111589;28;19920;-71
2023/12/08 03:18:30;;;;;;;;;;;1.80;99.90;;;;;;5110841;27;20378;-71
2023/12/08 03:20:56;;;;;;;;;;;1.80;99.90;;;;;;5110550;27;20406;-70
2023/12/08 03:23:21;;;;;;;;;;;1.80;99.90;;;;;;5116267;27;19927;-70
2023/12/08 03:25:47;;;;;;;;;;;1.80;99.90;;;;;;5116716;27;19928;-71
2023/12/08 03:28:12;;;;;;;;;;;1.80;99.90;;;;;;5118649;27;19931;-70
2023/12/08 03:30:38;;;;;;;;;;;1.80;99.90;;;;;;5115883;27;19967;-70
2023/12/08 03:33:03;;;;;;;;;;;1.80;99.90;;;;;;5116288;27;20013;-70
2023/12/08 03:35:29;;;;;;;;;;;1.80;99.90;;;;;;5115123;27;19963;-70
2023/12/08 03:37:54;;;;;;;;;;;1.80;99.90;;;;;;5117524;27;20340;-70
2023/12/08 03:40:20;;;;;;;;;;;1.80;99.90;;;;;;5112379;27;20294;-71
2023/12/08 03:42:45;;;;;;;;;;;1.80;99.90;;;;;;5119457;27;19927;-72
2023/12/08 03:45:11;;;;;;;;;;;1.80;99.90;;;;;;5116021;27;20306;-71
2023/12/08 03:47:36;;;;;;;;;;;1.80;99.90;;;;;;5116425;27;20147;-71
2023/12/08 03:50:02;;;;;;;;;;;1.70;99.90;;;;;;5110834;27;19962;-71
2023/12/08 03:52:28;;;;;;;;;;;1.70;99.90;;;;;;5111822;27;19927;-71
2023/12/08 03:54:54;;;;;;;;;;;1.70;99.90;;;;;;5118503;27;19967;-71
2023/12/08 03:57:20;;;;;;;;;;;1.70;99.90;;;;;;5120174;27;19931;-70
2023/12/08 03:59:45;;;;;;;;;;;1.70;99.90;;;;;;5099721;27;20379;-71
2023/12/08 04:02:11;;;;;;;;;;;1.70;99.90;;;;;;5116313;27;19920;-70
2023/12/08 04:04:36;;;;;;;;;;;1.70;99.90;;;;;;5116008;27;19925;-71
2023/12/08 04:07:02;;;;;;;;;;;1.70;99.90;;;;;;5114064;27;20026;-71
2023/12/08 04:09:29;;;;;;;;;;;1.60;99.90;;;;;;5113950;27;19935;-71
2023/12/08 04:11:55;;;;;;;;;;;1.60;99.90;;;;;;5091942;27;19936;-71
2023/12/08 04:14:20;;;;;;;;;;;1.60;99.90;;;;;;5112280;27;19928;-72
2023/12/08 04:16:46;;;;;;;;;;;1.60;99.90;;;;;;5113086;27;19975;-72
2023/12/08 04:19:12;;;;;;;;;;;1.60;99.90;;;;;;5115603;27;19923;-71
2023/12/08 04:21:38;;;;;;;;;;;1.50;99.90;;;;;;5116062;27;19924;-71
2023/12/08 04:24:04;;;;;;;;;;;1.50;99.90;;;;;;5111828;27;19924;-70
2023/12/08 04:26:29;;;;;;;;;;;1.60;99.90;;;;;;5115768;27;19927;-70
2023/12/08 04:28:55;;;;;;;;;;;1.50;99.90;;;;;;5116131;27;19923;-71
2023/12/08 04:31:20;;;;;;;;;;;1.50;99.90;;;;;;5117500;27;20291;-71
2023/12/08 04:33:47;;;;;;;;;;;1.40;99.90;;;;;;5113465;27;21488;-71
2023/12/08 04:36:13;;;;;;;;;;;1.40;99.90;;;;;;5112039;27;19924;-71
2023/12/08 04:38:39;;;;;;;;;;;1.40;99.90;;;;;;5115365;27;21252;-71
2023/12/08 04:41:05;;;;;;;;;;;1.40;99.90;;;;;;5117255;27;19923;-71
2023/12/08 04:43:30;;;;;;;;;;;1.40;99.90;;;;;;5116917;27;19931;-72
2023/12/08 04:45:56;;;;;;;;;;;1.40;99.90;;;;;;5113950;27;19962;-72
2023/12/08 04:48:21;;;;;;;;;;;1.40;99.90;;;;;;5117046;27;20072;-72
2023/12/08 04:50:47;;;;;;;;;;;1.30;99.90;;;;;;5114185;27;20407;-71
2023/12/08 04:53:12;;;;;;;;;;;1.30;99.90;;;;;;5116218;27;19927;-71
2023/12/08 04:55:38;;;;;;;;;;;1.30;99.90;;;;;;5118455;27;20287;-70
2023/12/08 04:58:03;;;;;;;;;;;1.30;99.90;;;;;;5121425;27;20214;-70
2023/12/08 05:00:29;;;;;;;;;;;1.30;99.90;;;;;;5108575;27;20544;-70
2023/12/08 05:02:57;;;;;;;;;;;1.30;99.90;;;;;;5115973;27;20389;-70
2023/12/08 05:05:23;;;;;;;;;;;1.20;99.90;;;;;;5108072;27;19924;-70
2023/12/08 05:07:49;;;;;;;;;;;1.20;99.90;;;;;;5111822;27;19924;-71
2023/12/08 05:10:14;;;;;;;;;;;1.20;99.90;;;;;;5117389;27;20283;-71
2023/12/08 05:12:40;;;;;;;;;;;1.20;99.90;;;;;;5115594;27;20016;-71
2023/12/08 05:15:06;;;;;;;;;;;1.20;99.90;;;;;;5112138;27;19928;-71
2023/12/08 05:17:31;;;;;;;;;;;1.20;99.90;;;;;;5112960;27;19932;-71
2023/12/08 05:19:57;;;;;;;;;;;1.20;99.90;;;;;;5098077;28;19932;-71
2023/12/08 05:22:22;;;;;;;;;;;1.20;99.90;;;;;;5093162;27;19963;-71
2023/12/08 05:24:48;;;;;;;;;;;1.20;99.90;;;;;;5113205;27;19985;-71
2023/12/08 05:27:13;;;;;;;;;;;1.20;99.90;;;;;;5117140;27;20015;-70
2023/12/08 05:29:39;;;;;;;;;;;1.20;99.90;;;;;;5114343;27;20022;-71
2023/12/08 05:32:04;;;;;;;;;;;1.20;99.90;;;;;;5110919;27;20290;-71
2023/12/08 05:34:30;;;;;;;;;;;1.10;99.90;;;;;;5117611;27;19928;-70
2023/12/08 05:36:56;;;;;;;;;;;1.10;99.90;;;;;;5116037;27;20014;-70
2023/12/08 05:39:21;;;;;;;;;;;1.20;99.90;;;;;;5112881;27;19930;-70
2023/12/08 05:41:47;;;;;;;;;;;1.10;99.90;;;;;;5111795;27;20014;-71
2023/12/08 05:44:14;;;;;;;;;;;1.10;99.90;;;;;;5116289;27;19939;-70
2023/12/08 05:46:40;;;;;;;;;;;1.10;99.90;;;;;;5113127;27;19923;-70
2023/12/08 05:49:05;;;;;;;;;;;1.10;99.90;;;;;;5112022;27;19930;-70
2023/12/08 05:51:31;;;;;;;;;;;1.10;99.90;;;;;;5095907;28;19924;-70
2023/12/08 05:53:56;;;;;;;;;;;1.10;99.90;;;;;;5099686;27;19924;-70
2023/12/08 05:56:22;;;;;;;;;;;1.00;99.90;;;;;;5109491;27;19928;-69
2023/12/08 05:58:48;;;;;;;;;;;1.00;99.90;;;;;;5112471;27;20422;-69
2023/12/08 06:01:14;;;;;;;;;;;1.10;99.90;;;;;;5111526;27;19939;-69
2023/12/08 06:03:39;;;;;;;;;;;1.00;99.90;;;;;;5111684;27;20357;-70
2023/12/08 06:06:05;;;;;;;;;;;1.10;99.90;;;;;;5109203;27;19930;-71
2023/12/08 06:08:30;;;;;;;;;;;1.00;99.90;;;;;;5115922;27;20417;-70
2023/12/08 06:10:56;;;;;;;;;;;1.10;99.90;;;;;;5116303;27;19967;-70
2023/12/08 06:13:21;;;;;;;;;;;1.00;99.90;;;;;;5113652;27;20355;-71
2023/12/08 06:15:47;;;;;;;;;;;1.00;99.90;;;;;;5115062;27;19932;-70
2023/12/08 06:18:12;;;;;;;;;;;1.00;99.90;;;;;;5112056;27;19930;-72
2023/12/08 06:20:38;;;;;;;;;;;1.10;99.90;;;;;;5123742;27;19924;-73
2023/12/08 06:23:04;;;;;;;;;;;1.10;99.90;;;;;;5113947;27;20145;-69
2023/12/08 06:25:29;;;;;;;;;;;1.10;99.90;;;;;;5120440;27;20343;-70
2023/12/08 06:27:55;;;;;;;;;;;1.00;99.90;;;;;;5118650;27;19923;-70
2023/12/08 06:30:20;;;;;;;;;;;1.00;99.90;;;;;;5121250;27;19927;-69
2023/12/08 06:32:46;;;;;;;;;;;1.00;99.90;;;;;;5117068;27;19934;-69
2023/12/08 06:35:11;;;;;;;;;;;1.00;99.90;;;;;;5113567;27;20257;-69
2023/12/08 06:37:37;;;;;;;;;;;1.00;99.90;;;;;;5116355;27;20299;-70
2023/12/08 06:40:03;;;;;;;;;;;1.00;99.90;;;;;;5112260;27;19973;-69
2023/12/08 06:42:29;;;;;;;;;;;1.00;99.90;;;;;;5112907;28;19924;-70
2023/12/08 06:44:55;;;;;;;;;;;1.10;99.90;;;;;;5117014;27;19961;-70
2023/12/08 06:47:20;;;;;;;;;;;1.00;99.90;;;;;;5110329;27;19927;-70
2023/12/08 06:49:46;;;;;;;;;;;1.00;99.90;;;;;;5115307;28;19981;-70
2023/12/08 06:52:11;;;;;;;;;;;1.00;99.90;;;;;;5113031;27;20348;-70
2023/12/08 06:54:37;;;;;;;;;;;1.10;99.90;;;;;;5114411;28;19924;-71
2023/12/08 06:57:02;;;;;;;;;;;1.10;99.90;;;;;;5109956;28;20018;-71
2023/12/08 06:59:28;;;;;;;;;;;1.10;99.90;;;;;;5113874;28;20712;-71
2023/12/08 07:01:54;;;;;;;;;;;1.10;99.90;;;;;;5108151;28;19938;-71
2023/12/08 07:04:19;;;;;;;;;;;1.10;99.90;;;;;;5108132;27;20313;-71
2023/12/08 07:06:46;;;;;;;;;;;1.10;99.90;;;;;;5108885;28;20302;-71
2023/12/08 07:09:12;;;;;;;;;;;1.10;99.90;;;;;;5113057;27;19934;-71
2023/12/08 07:11:37;;;;;;;;;;;1.10;99.90;;;;;;5111174;28;20014;-71
2023/12/08 07:14:03;;;;;;;;;;;1.10;99.90;;;;;;5106227;27;19962;-71
2023/12/08 07:16:28;;;;;;;;;;;1.10;99.90;;;;;;5108501;28;19931;-72
2023/12/08 07:18:54;;;;;;;;;;;1.10;99.90;;;;;;5111967;28;20012;-70
2023/12/08 07:21:19;;;;;;;;;;;1.10;99.90;;;;;;5092051;28;20257;-70
2023/12/08 07:23:45;;;;;;;;;;;1.20;99.90;;;;;;5111911;28;20127;-70
2023/12/08 07:26:10;;;;;;;;;;;1.20;99.90;;;;;;5105580;27;19931;-70
2023/12/08 07:28:36;;;;;;;;;;;1.20;99.90;;;;;;5113233;28;19932;-69
2023/12/08 07:31:02;;;;;;;;;;;1.10;99.90;;;;;;5112679;27;19930;-69
2023/12/08 07:33:27;;;;;;;;;;;1.20;99.90;;;;;;5108715;28;19923;-70
2023/12/08 07:35:53;;;;;;;;;;;1.20;99.90;;;;;;5112559;28;19924;-71
2023/12/08 07:38:18;;;;;;;;;;;1.20;99.90;;;;;;5107627;28;19942;-71
2023/12/08 07:40:45;;;;;;;;;;;1.20;99.90;;;;;;5111205;28;19923;-72
2023/12/08 07:43:11;;;;;;;;;;;1.20;99.90;;;;;;5112809;27;19931;-71
2023/12/08 07:45:36;;;;;;;;;;;1.20;99.90;;;;;;5108403;27;19924;-73
2023/12/08 07:48:02;;;;;;;;;;;1.20;99.90;;;;;;5095715;28;19943;-72
2023/12/08 07:50:27;;;;;;;;;;;1.20;99.90;;;;;;5111262;27;19930;-73
2023/12/08 07:52:53;;;;;;;;;;;1.20;99.90;;;;;;5115119;27;19924;-72
2023/12/08 07:55:19;;;;;;;;;;;1.20;99.90;;;;;;5114546;28;19938;-72
2023/12/08 07:57:44;;;;;;;;;;;1.20;99.90;;;;;;5117012;27;20010;-72
2023/12/08 08:00:10;;;;;;;;;;;1.20;99.90;;;;;;5112219;27;19923;-73
2023/12/08 08:02:36;;;;;;;;;;;1.20;99.90;;;;;;5110828;28;20298;-72
2023/12/08 08:05:02;;;;;;;;;;;1.20;99.90;;;;;;5113932;27;20327;-70
2023/12/08 08:07:28;;;;;;;;;;;1.20;99.90;;;;;;5111140;27;20427;-70
2023/12/08 08:09:53;;;;;;;;;;;1.20;99.90;;;;;;5116353;27;19919;-69
2023/12/08 08:12:19;;;;;;;;;;;1.20;99.90;;;;;;5098919;27;19930;-70
2023/12/08 08:14:45;;;;;;;;;;;1.10;99.90;;;;;;5114772;27;19927;-70
2023/12/08 08:17:10;;;;;;;;;;;1.10;99.90;;;;;;5114876;27;20048;-70
2023/12/08 08:19:36;;;;;;;;;;;1.20;99.90;;;;;;5115998;27;20003;-70
2023/12/08 08:22:02;;;;;;;;;;;1.20;99.90;;;;;;5114035;27;19931;-70
2023/12/08 08:24:27;;;;;;;;;;;1.20;99.90;;;;;;5118335;27;20359;-70
2023/12/08 08:26:53;;;;;;;;;;;1.20;99.90;;;;;;5122083;27;19970;-70
2023/12/08 08:29:18;;;;;;;;;;;1.20;99.90;;;;;;5111473;27;19993;-70
2023/12/08 08:31:44;;;;;;;;;;;1.10;99.90;;;;;;5098093;27;19932;-70
2023/12/08 08:34:09;;;;;;;;;;;1.20;99.90;;;;;;5113326;27;19928;-70
2023/12/08 08:36:35;;;;;;;;;;;1.20;99.90;;;;;;5112376;27;19931;-70
2023/12/08 08:39:03;;;;;;;;;;;1.20;99.90;;;;;;5124838;27;19931;-70
2023/12/08 08:41:28;;;;;;;;;;;1.20;99.90;;;;;;5112617;27;19930;-70
2023/12/08 08:43:54;;;;;;;;;;;1.30;99.90;;;;;;5115774;27;19923;-70
2023/12/08 08:46:19;;;;;;;;;;;1.20;99.90;;;;;;5112801;27;19928;-70
2023/12/08 08:48:45;;;;;;;;;;;1.20;99.90;;;;;;5113406;27;19993;-69
2023/12/08 08:51:11;;;;;;;;;;;1.20;99.90;;;;;;5110557;27;19939;-69
2023/12/08 08:53:37;;;;;;;;;;;1.20;99.90;;;;;;5109103;27;19938;-69
2023/12/08 08:56:03;;;;;;;;;;;1.20;99.90;;;;;;5096381;27;19928;-69
2023/12/08 08:58:29;;;;;;;;;;;1.20;99.90;;;;;;5119352;27;19931;-69
2023/12/08 09:00:54;;;;;;;;;;;1.20;99.90;;;;;;5113033;27;20307;-69
2023/12/08 09:03:20;;;;;;;;;;;1.20;99.90;;;;;;5108297;27;19927;-69
2023/12/08 09:05:45;;;;;;;;;;;1.20;99.90;;;;;;5111343;27;20315;-69
2023/12/08 09:08:11;;;;;;;;;;;1.20;99.90;;;;;;5094149;27;19932;-69
2023/12/08 09:10:38;;;;;;;;;;;1.20;99.90;;;;;;5114461;27;20406;-69
2023/12/08 09:13:03;;;;;;;;;;;1.20;99.90;;;;;;5110694;27;19931;-70
2023/12/08 09:15:29;;;;;;;;;;;1.20;99.90;;;;;;5118964;27;19923;-70
2023/12/08 09:17:55;;;;;;;;;;;1.20;99.90;;;;;;5118337;27;20348;-70
2023/12/08 09:20:20;;;;;;;;;;;1.30;99.90;;;;;;5114188;27;19932;-70
2023/12/08 09:22:46;;;;;;;;;;;1.30;99.90;;;;;;5124854;27;19927;-70
2023/12/08 09:25:12;;;;;;;;;;;1.30;99.90;;;;;;5114873;27;19931;-70
2023/12/08 09:27:37;;;;;;;;;;;1.30;99.90;;;;;;5116308;27;19923;-70
2023/12/08 09:30:03;;;;;;;;;;;1.40;99.90;;;;;;5113169;27;20448;-70
2023/12/08 09:32:29;;;;;;;;;;;1.40;99.90;;;;;;5113915;27;20411;-70
2023/12/08 09:34:54;;;;;;;;;;;1.40;99.90;;;;;;5124844;27;20102;-70
2023/12/08 09:37:20;;;;;;;;;;;1.50;99.90;;;;;;5115831;27;20237;-70
2023/12/08 09:39:45;;;;;;;;;;;1.50;99.90;;;;;;5115678;27;20398;-70
2023/12/08 09:42:16;;;;;;;;;;;1.50;99.90;;;;;;5107685;27;20496;-70
2023/12/08 09:44:42;;;;;;;;;;;1.50;99.90;;;;;;5110995;27;19931;-70
2023/12/08 09:47:08;;;;;;;;;;;1.50;99.90;;;;;;5111334;27;20366;-71
2023/12/08 09:49:36;;;;;;;;;;;1.50;99.90;;;;;;5120547;27;20006;-70
2023/12/08 09:52:03;;;;;;;;;;;1.60;99.90;;;;;;5114591;27;19934;-70
2023/12/08 09:54:29;;;;;;;;;;;1.60;99.90;;;;;;5110861;27;19935;-70
2023/12/08 09:56:55;;;;;;;;;;;1.60;99.90;;;;;;5115831;27;19935;-70
2023/12/08 09:59:26;;;;;;;;;;;1.60;99.90;;;;;;5114018;27;20177;-70
2023/12/08 10:01:52;;;;;;;;;;;1.60;99.90;;;;;;5117987;27;20290;-71
2023/12/08 10:04:17;;;;;;;;;;;1.60;99.90;;;;;;5094527;28;19924;-70
2023/12/08 10:06:43;;;;;;;;;;;1.70;99.90;;;;;;5117620;27;19924;-70
2023/12/08 10:09:11;;;;;;;;;;;1.60;99.90;;;;;;5118748;27;20493;-71
2023/12/08 10:11:37;;;;;;;;;;;1.70;99.90;;;;;;5090446;28;20030;-70
2023/12/08 10:14:04;;;;;;;;;;;1.70;99.90;;;;;;5113892;27;20058;-70
2023/12/08 10:16:30;;;;;;;;;;;1.70;99.90;;;;;;5116149;27;19984;-70
2023/12/08 10:19:05;;;;;;;;;;;1.80;99.90;;;;;;5112507;27;20379;-70
2023/12/08 10:21:31;;;;;;;;;;;1.70;99.90;;;;;;5110298;27;20417;-70
2023/12/08 10:24:01;;;;;;;;;;;1.80;99.90;;;;;;5116484;27;19924;-70
2023/12/08 10:26:27;;;;;;;;;;;1.80;99.90;;;;;;5110270;27;20407;-70
2023/12/08 10:28:57;;;;;;;;;;;1.80;99.90;;;;;;5114419;27;19923;-70
2023/12/08 10:31:22;;;;;;;;;;;1.80;99.90;;;;;;5117182;27;20022;-70
2023/12/08 10:33:48;;;;;;;;;;;1.80;99.90;;;;;;5115132;27;20151;-70
2023/12/08 10:36:14;;;;;;;;;;;1.80;99.90;;;;;;5108462;27;19931;-70
2023/12/08 10:38:40;;;;;;;;;;;1.90;99.90;;;;;;5115922;27;19931;-70
2023/12/08 10:41:08;;;;;;;;;;;1.90;99.90;;;;;;5113537;27;19932;-70
2023/12/08 10:43:36;;;;;;;;;;;1.90;99.90;;;;;;5106443;27;19931;-69
2023/12/08 10:46:02;;;;;;;;;;;1.90;99.90;;;;;;5109450;27;19961;-69
2023/12/08 10:48:28;;;;;;;;;;;1.90;99.90;;;;;;5111329;27;19924;-69
2023/12/08 10:50:53;;;;;;;;;;;1.90;99.90;;;;;;5123263;27;19931;-69
2023/12/08 10:53:19;;;;;;;;;;;1.90;99.90;;;;;;5114914;27;20023;-69
2023/12/08 10:55:54;;;;;;;;;;;2.00;99.90;;;;;;5107659;27;19956;-69
2023/12/08 10:58:20;;;;;;;;;;;2.00;99.90;;;;;;5115042;27;19924;-68
2023/12/08 11:00:47;;;;;;;;;;;2.00;99.90;;;;;;5112869;27;19950;-70
2023/12/08 11:03:15;;;;;;;;;;;2.00;99.90;;;;;;5118196;27;19936;-70
2023/12/08 11:05:48;;;;;;;;;;;2.00;99.90;;;;;;5115604;28;19968;-70
2023/12/08 11:08:16;;;;;;;;;;;2.00;99.90;;;;;;5112780;27;19963;-72
2023/12/08 11:10:43;;;;;;;;;;;2.00;99.90;;;;;;5115412;28;20018;-73
2023/12/08 11:13:13;;;;;;;;;;;2.10;99.90;;;;;;5110477;28;19923;-70
2023/12/08 11:15:43;;;;;;;;;;;2.10;99.90;;;;;;5120097;28;20364;-69
2023/12/08 11:18:26;;;;;;;;;;;2.10;99.90;;;;;;5092278;28;19931;-70
2023/12/08 11:20:52;;;;;;;;;;;2.10;99.90;;;;;;5119076;28;20312;-70
2023/12/08 11:23:18;;;;;;;;;;;2.10;99.90;;;;;;5113412;27;19923;-70
2023/12/08 11:25:46;;;;;;;;;;;2.10;99.90;;;;;;5119337;28;19931;-70
2023/12/08 11:28:25;;;;;;;;;;;2.10;99.90;;;;;;5114805;27;19938;-70
2023/12/08 11:30:54;;;;;;;;;;;2.20;99.90;;;;;;5114352;28;19931;-71
2023/12/08 11:33:29;;;;;;;;;;;2.20;99.90;;;;;;5118114;28;20294;-71
2023/12/08 11:36:04;;;;;;;;;;;2.20;99.90;;;;;;5119607;28;19924;-71
2023/12/08 11:38:30;;;;;;;;;;;2.20;99.90;;;;;;5109773;28;19928;-71
2023/12/08 11:40:56;;;;;;;;;;;2.30;99.90;;;;;;5113841;27;19939;-71
2023/12/08 11:43:26;;;;;;;;;;;2.30;99.90;;;;;;5120312;27;19930;-71
2023/12/08 11:45:52;;;;;;;;;;;2.30;99.90;;;;;;5118379;27;19927;-72
2023/12/08 11:48:18;;;;;;;;;;;2.40;99.90;;;;;;5114034;27;20283;-70
2023/12/08 11:50:44;;;;;;;;;;;2.40;99.90;;;;;;5116487;27;20332;-72
2023/12/08 11:53:10;;;;;;;;;;;2.40;99.90;;;;;;5115221;27;19930;-71
2023/12/08 11:55:38;;;;;;;;;;;2.40;99.90;;;;;;5114566;27;19928;-71
2023/12/08 11:58:03;;;;;;;;;;;2.40;99.90;;;;;;5118212;27;19931;-71
2023/12/08 12:00:33;;;;;;;;;;;2.40;99.90;;;;;;5115856;27;19947;-71
2023/12/08 12:02:59;;;;;;;;;;;2.40;99.90;;;;;;5118293;27;19931;-71
2023/12/08 12:05:28;;;;;;;;;;;2.50;99.90;;;;;;5112943;27;19976;-71
2023/12/08 12:07:54;;;;;;;;;;;2.50;99.90;;;;;;5119216;27;20374;-71
2023/12/08 12:10:24;;;;;;;;;;;2.50;99.90;;;;;;5113494;27;19927;-71
2023/12/08 12:12:54;;;;;;;;;;;2.50;99.90;;;;;;5117665;27;20413;-71
2023/12/08 12:15:21;;;;;;;;;;;2.40;99.90;;;;;;5120662;27;19932;-72
2023/12/08 12:17:47;;;;;;;;;;;2.50;99.90;;;;;;5113976;27;19934;-69
2023/12/08 12:20:12;;;;;;;;;;;2.50;99.90;;;;;;5112544;27;20002;-70
2023/12/08 12:22:39;;;;;;;;;;;2.50;99.90;;;;;;5124235;27;20025;-72
2023/12/08 12:25:05;;;;;;;;;;;2.50;99.90;;;;;;5120393;27;19934;-72
2023/12/08 12:27:31;;;;;;;;;;;2.60;99.90;;;;;;5108109;27;20390;-72
2023/12/08 12:29:56;;;;;;;;;;;2.60;99.90;;;;;;5104100;27;19927;-70
2023/12/08 12:32:22;;;;;;;;;;;2.60;99.90;;;;;;5121641;27;19932;-70
2023/12/08 12:34:48;;;;;;;;;;;2.60;99.90;;;;;;5127747;27;19923;-72
2023/12/08 12:37:13;;;;;;;;;;;2.70;99.90;;;;;;5123173;27;19938;-72
2023/12/08 12:39:39;;;;;;;;;;;2.60;99.90;;;;;;5124672;27;19938;-72
2023/12/08 12:42:05;;;;;;;;;;;2.70;99.90;;;;;;5121642;27;19930;-72
2023/12/08 12:44:41;;;;;;;;;;;2.70;99.90;;;;;;5107115;27;20461;-72
2023/12/08 12:47:09;;;;;;;;;;;2.70;99.90;;;;;;5117263;27;20042;-72
2023/12/08 12:49:35;;;;;;;;;;;2.70;99.90;;;;;;5125381;27;19964;-73
2023/12/08 12:52:03;;;;;;;;;;;2.70;99.90;;;;;;5120978;27;19927;-72
2023/12/08 12:54:34;;;;;;;;;;;2.70;99.90;;;;;;5126427;27;20018;-72
2023/12/08 12:57:00;;;;;;;;;;;2.80;99.90;;;;;;5122031;27;20350;-72
2023/12/08 12:59:26;;;;;;;;;;;2.80;99.90;;;;;;5121534;27;19994;-72
2023/12/08 13:01:51;;;;;;;;;;;2.80;99.90;;;;;;5104413;27;19931;-72
2023/12/08 13:04:17;;;;;;;;;;;2.80;99.90;;;;;;5123789;27;19923;-72
2023/12/08 13:06:42;;;;;;;;;;;2.80;99.90;;;;;;5092958;27;20338;-72
2023/12/08 13:09:11;;;;;;;;;;;2.80;99.90;;;;;;5107155;27;19923;-73
2023/12/08 13:11:37;;;;;;;;;;;2.80;99.90;;;;;;5118017;27;19991;-73
2023/12/08 13:14:02;;;;;;;;;;;2.80;99.90;;;;;;5124347;27;20011;-73
2023/12/08 13:16:29;;;;;;;;;;;2.80;99.90;;;;;;5126544;27;20413;-73
2023/12/08 13:18:54;;;;;;;;;;;2.80;99.90;;;;;;5119424;27;19928;-72
2023/12/08 13:21:20;;;;;;;;;;;2.80;99.90;;;;;;5121511;27;19937;-73
2023/12/08 13:23:47;;;;;;;;;;;2.90;99.90;;;;;;5123441;27;20844;-73
2023/12/08 13:26:13;;;;;;;;;;;2.90;99.90;;;;;;5124690;27;19974;-72
2023/12/08 13:28:38;;;;;;;;;;;2.90;99.90;;;;;;5119974;27;20405;-72
2023/12/08 13:31:04;;;;;;;;;;;2.90;99.90;;;;;;5117159;27;19931;-72
2023/12/08 13:33:30;;;;;;;;;;;2.90;99.90;;;;;;5121642;27;19931;-73
2023/12/08 13:35:55;;;;;;;;;;;2.90;99.90;;;;;;5108178;27;19923;-73
2023/12/08 13:38:21;;;;;;;;;;;2.90;99.90;;;;;;5120230;27;20375;-72
2023/12/08 13:40:47;;;;;;;;;;;2.90;99.90;;;;;;5098213;27;19931;-73
2023/12/08 13:43:12;;;;;;;;;;;2.90;99.90;;;;;;5117629;27;19931;-74
2023/12/08 13:45:38;;;;;;;;;;;2.90;99.90;;;;;;5120875;27;19975;-73
2023/12/08 13:48:04;;;;;;;;;;;3.00;99.90;;;;;;5114953;27;20177;-74
2023/12/08 13:50:30;;;;;;;;;;;2.90;99.90;;;;;;5119985;27;19923;-73
2023/12/08 13:52:56;;;;;;;;;;;3.00;99.90;;;;;;5118476;27;20418;-73
2023/12/08 13:55:22;;;;;;;;;;;3.00;99.90;;;;;;5115755;27;20381;-73
2023/12/08 13:57:48;;;;;;;;;;;3.00;99.90;;;;;;5124203;27;19931;-73
2023/12/08 14:00:13;;;;;;;;;;;3.00;99.90;;;;;;5123194;27;19973;-73
2023/12/08 14:02:40;;;;;;;;;;;3.10;99.90;;;;;;5121332;27;20389;-73
2023/12/08 14:05:07;;;;;;;;;;;3.10;99.90;;;;;;5114170;27;19949;-73
2023/12/08 14:07:33;;;;;;;;;;;3.10;99.90;;;;;;5117581;27;20496;-73
2023/12/08 14:09:59;;;;;;;;;;;3.20;99.90;;;;;;5123400;27;20010;-74
2023/12/08 14:12:24;;;;;;;;;;;3.10;99.90;;;;;;5115763;27;20512;-74
2023/12/08 14:14:50;;;;;;;;;;;3.20;99.90;;;;;;5116259;27;19962;-79
2023/12/08 14:17:15;;;;;;;;;;;3.20;99.90;;;;;;5114685;27;20037;-78
2023/12/08 14:19:41;;;;;;;;;;;3.30;99.90;;;;;;5113316;27;19932;-78
2023/12/08 14:22:07;;;;;;;;;;;3.30;99.90;;;;;;5117261;27;19953;-77
2023/12/08 14:24:33;;;;;;;;;;;3.40;99.90;;;;;;5123496;27;19927;-78